Data for 08/03/2009

Time Sea-Level Adjusted Pressure Absolute Pressure Temperature Relative Humidity Dew Point   
(mb) (inHg) (mb) (inHg) (C) (F) (%) (C) (F)
00:05 1017 30.03 846 24.98 18.9 66.1 49 8.1 46.6
00:10 1017 30.03 846 24.98 18.9 65.9 49 8.2 46.7
00:15 1017 30.03 846 24.98 18.4 65.1 54 8.9 48
00:20 1017 30.03 846 24.98 17.8 64 56 8.9 48.1
00:25 1017 30.03 847 25.01 17.5 63.5 57 9.1 48.3
00:30 1017 30.03 847 25.01 17.4 63.3 57 8.9 48.1
00:35 1017 30.03 847 25.01 17.5 63.4 58 9.2 48.5
00:40 1017 30.03 847 25.01 17.5 63.6 58 9.4 48.9
00:45 1018 30.06 847 25.01 17.8 64 58 9.6 49.3
00:50 1018 30.06 847 25.01 17.7 63.8 59 9.7 49.5
00:55 1018 30.06 847 25.01 17.9 64.2 57 9.2 48.6
01:00 1018 30.06 847 25.01 18.4 65.1 52 8.4 47.1
01:05 1018 30.06 847 25.01 19.5 67.1 50 8.9 48
01:10 1018 30.06 847 25.01 19.4 67 54 9.9 49.8
01:15 1018 30.06 847 25.01 19 66.2 56 10 50.1
01:20 1018 30.06 847 25.01 18.6 65.6 56 9.8 49.7
01:25 1018 30.06 847 25.01 18.5 65.3 56 9.5 49.2
01:30 1018 30.06 847 25.01 18.4 65.1 56 9.6 49.2
01:35 1018 30.06 847 25.01 18.2 64.8 55 9.1 48.3
01:40 1018 30.06 847 25.01 18.4 65.1 53 8.9 48
01:45 1018 30.06 847 25.01 18.5 65.3 55 9.4 48.9
01:50 1018 30.06 847 25.01 18.5 65.3 53 8.9 48
01:55 1018 30.06 847 25.01 19 66.2 46 7.4 45.3
02:00 1018 30.06 847 25.01 19.4 66.9 48 8.3 47
02:05 1018 30.06 847 25.01 19.2 66.6 52 9.2 48.6
02:10 1018 30.06 847 25.01 18.9 66 53 9.3 48.7
02:15 1018 30.06 847 25.01 19 66.2 49 8.2 46.8
02:20 1018 30.06 847 25.01 19.3 66.8 51 9 48.2
02:25 1018 30.06 847 25.01 19 66.1 50 8.4 47.2
02:30 1018 30.06 847 25.01 18.8 65.9 48 7.8 46
02:35 1018 30.06 847 25.01 19.5 67 43 6.7 44.1
02:40 1018 30.06 847 25.01 20.2 68.3 43 7.3 45.1
02:45 1018 30.06 847 25.01 20.2 68.4 43 7.5 45.4
02:50 1018 30.06 847 25.01 20.3 68.5 42 7.2 45
02:55 1018 30.06 847 25.01 20.1 68.1 45 7.8 46.1
03:00 1018 30.06 847 25.01 19.8 67.7 47 8.3 46.9
03:05 1018 30.06 847 25.01 19.7 67.5 43 7.1 44.8
03:10 1017 30.03 847 25.01 19.9 67.7 43 6.9 44.4
03:15 1017 30.03 847 25.01 20 68 40 6.1 43
03:20 1017 30.03 847 25.01 20 67.9 47 8.4 47.1
03:25 1017 30.03 847 25.01 18.4 65.1 49 7.7 45.8
03:30 1017 30.03 846 24.98 18 64.3 49 7.1 44.8
03:35 1017 30.03 846 24.98 18 64.4 50 7.6 45.7
03:40 1017 30.03 846 24.98 17.8 64 50 7.4 45.3
03:45 1017 30.03 846 24.98 17.6 63.7 50 7.3 45.2
03:50 1017 30.03 846 24.98 17.5 63.5 51 7.5 45.5
03:55 1017 30.03 846 24.98 17.3 63.1 52 7.4 45.3
04:00 1017 30.03 846 24.98 17.2 62.9 52 7.3 45.1
04:05 1017 30.03 847 25.01 17.2 63 52 7.3 45.2
04:10 1017 30.03 847 25.01 17.4 63.3 50 6.9 44.4
04:15 1017 30.03 847 25.01 17.5 63.5 52 7.6 45.7
04:20 1017 30.03 847 25.01 17.1 62.8 52 7.4 45.3
04:25 1018 30.06 847 25.01 17.1 62.8 52 7.2 44.9
04:30 1018 30.06 847 25.01 17.2 62.9 51 7.1 44.8
04:35 1018 30.06 847 25.01 17.3 63.2 54 7.9 46.3
04:40 1018 30.06 847 25.01 17 62.5 54 7.8 46.1
04:45 1018 30.06 847 25.01 16.8 62.2 56 8 46.4
04:50 1018 30.06 847 25.01 16.7 62.1 56 8.1 46.5
04:55 1018 30.06 847 25.01 16.8 62.2 54 7.5 45.5
05:00 1018 30.06 847 25.01 17 62.6 54 7.6 45.7
05:05 1018 30.06 847 25.01 16.7 62.1 56 7.9 46.3
05:10 1018 30.06 847 25.01 16.3 61.3 58 8.1 46.6
05:15 1018 30.06 847 25.01 15.9 60.6 61 8.3 47
05:20 1018 30.06 847 25.01 15.6 60 61 8.2 46.7
05:25 1018 30.06 847 25.01 15.3 59.5 66 9 48.2
05:30 1018 30.06 847 25.01 15.7 60.2 58 7.5 45.5
05:35 1018 30.06 847 25.01 16.2 61.1 58 7.9 46.3
05:40 1018 30.06 847 25.01 16 60.8 59 8 46.4
05:45 1018 30.06 847 25.01 15.6 60.1 63 8.7 47.7
05:50 1018 30.06 847 25.01 15.2 59.3 62 8 46.3
05:55 1018 30.06 847 25.01 15 59 62 7.9 46.2
06:00 1018 30.06 847 25.01 14.7 58.5 65 8.1 46.7
06:05 1018 30.06 848 25.04 14.3 57.7 65 7.9 46.3
06:10 1018 30.06 848 25.04 14.3 57.7 64 7.6 45.7
06:15 1018 30.06 848 25.04 14.2 57.6 67 8.2 46.7
06:20 1019 30.09 848 25.04 13.7 56.6 68 8 46.4
06:25 1019 30.09 848 25.04 13.7 56.6 67 7.7 45.9
06:30 1019 30.09 848 25.04 13.7 56.7 67 7.8 46
06:35 1019 30.09 848 25.04 13.8 56.9 66 7.6 45.8
06:40 1019 30.09 848 25.04 14 57.2 65 7.5 45.6
06:45 1019 30.09 848 25.04 14.2 57.5 64 7.6 45.7
06:50 1019 30.09 848 25.04 14.1 57.4 65 7.6 45.7
06:55 1019 30.09 848 25.04 14.2 57.5 65 7.7 45.9
07:00 1019 30.09 848 25.04 14.3 57.7 62 7.2 45
07:05 1019 30.09 848 25.04 14.8 58.6 61 7.3 45.1
07:10 1019 30.09 849 25.07 15 58.9 61 7.5 45.5
07:15 1019 30.09 849 25.07 15 58.9 62 7.7 45.9
07:20 1019 30.09 849 25.07 15 58.9 61 7.6 45.6
07:25 1019 30.09 849 25.07 15.3 59.6 60 7.7 45.9
07:30 1019 30.09 849 25.07 15.6 60.1 59 7.7 45.8
07:35 1020 30.12 849 25.07 15.9 60.6 59 8 46.4
07:40 1020 30.12 849 25.07 16 60.8 59 8 46.5
07:45 1020 30.12 849 25.07 16.4 61.5 58 8.2 46.7
07:50 1020 30.12 849 25.07 16.7 62.1 58 8.4 47.1
07:55 1020 30.12 849 25.07 17 62.6 63 10 50
08:00 1020 30.12 849 25.07 17.6 63.6 56 8.8 47.9
08:05 1020 30.12 849 25.07 18.1 64.5 56 9.3 48.7
08:10 1020 30.12 849 25.07 18.4 65.2 55 9.2 48.6
08:15 1020 30.12 849 25.07 18.8 65.8 55 9.6 49.2
08:20 1020 30.12 849 25.07 19.2 66.6 56 10.3 50.5
08:25 1020 30.12 849 25.07 19.3 66.7 59 11.2 52.2
08:30 1020 30.12 849 25.07 19.3 66.7 55 10.3 50.5
08:35 1020 30.12 849 25.07 19.7 67.5 53 10.1 50.2
08:40 1020 30.12 849 25.07 20.5 69 50 9.8 49.7
08:45 1020 30.12 850 25.1 21.4 70.5 47 9.9 49.7
08:50 1020 30.12 849 25.07 21.5 70.8 47 9.8 49.7
08:55 1020 30.12 849 25.07 21.6 71 38 6.9 44.4
09:00 1020 30.12 849 25.07 21.6 71 37 6.5 43.7
09:05 1020 30.12 849 25.07 21.7 71.1 37 6.7 44.1
09:10 1020 30.12 849 25.07 22.7 72.8 36 7.1 44.7
09:15 1020 30.12 849 25.07 22.8 73 35 6.8 44.3
09:20 1020 30.12 850 25.1 23 73.5 36 7.4 45.2
09:25 1020 30.12 850 25.1 23 73.3 37 7.7 45.9
09:30 1020 30.12 850 25.1 23.2 73.8 37 8 46.4
09:35 1020 30.12 850 25.1 23.1 73.5 40 9 48.2
09:40 1020 30.12 850 25.1 22.7 72.9 38 7.8 46
09:45 1020 30.12 850 25.1 23.1 73.7 37 7.7 45.8
09:50 1020 30.12 850 25.1 23.5 74.3 36 8 46.3
09:55 1020 30.12 850 25.1 23.5 74.4 37 8.2 46.8
10:00 1020 30.12 849 25.07 23 73.5 35 7 44.7
10:05 1020 30.12 849 25.07 23.1 73.5 35 7 44.6
10:10 1020 30.12 849 25.07 23.4 74.1 36 7.5 45.5
10:15 1020 30.12 849 25.07 22.9 73.2 37 7.6 45.6
10:20 1020 30.12 849 25.07 22.7 72.9 39 8.2 46.8
10:25 1020 30.12 849 25.07 23.3 73.9 36 7.4 45.3
10:30 1020 30.12 849 25.07 23.5 74.3 34 6.8 44.3
10:35 1020 30.12 849 25.07 23.7 74.7 36 7.9 46.2
10:40 1020 30.12 849 25.07 24.3 75.7 32 6.8 44.2
10:45 1020 30.12 849 25.07 24.4 75.9 32 6.9 44.4
10:50 1020 30.12 849 25.07 24.8 76.6 31 6.8 44.3
10:55 1020 30.12 849 25.07 24.8 76.6 32 7.1 44.7
11:00 1020 30.12 849 25.07 24.7 76.5 32 7 44.6
11:05 1020 30.12 849 25.07 25.4 77.8 29 6.3 43.3
11:10 1020 30.12 849 25.07 25.9 78.7 29 6.7 44
11:15 1020 30.12 850 25.1 25.8 78.5 27 5.7 42.3
11:20 1020 30.12 850 25.1 25.6 78.1 30 6.9 44.5
11:25 1020 30.12 850 25.1 25.6 78 28 5.7 42.3
11:30 1020 30.12 850 25.1 25.3 77.5 29 6.4 43.5
11:35 1020 30.12 850 25.1 25.8 78.4 29 6.7 44
11:40 1020 30.12 850 25.1 25.9 78.6 29 6.6 43.9
11:45 1020 30.12 850 25.1 25 77.1 30 6.5 43.6
11:50 1020 30.12 850 25.1 24.9 76.8 29 5.9 42.7
11:55 1020 30.12 850 25.1 24.9 76.8 30 6.4 43.6
12:00 1020 30.12 850 25.1 25.3 77.5 30 6.7 44.1
12:05 1020 30.12 850 25.1 25.8 78.4 29 6.5 43.8
12:10 1020 30.12 850 25.1 25 77 30 6.5 43.8
12:15 1020 30.12 850 25.1 25.6 78.1 29 6.7 44.1
12:20 1020 30.12 850 25.1 25.5 77.8 28 6 42.8
12:25 1020 30.12 850 25.1 25.2 77.4 28 5.9 42.6
12:30 1020 30.12 850 25.1 25.7 78.2 27 5.4 41.8
12:35 1020 30.12 850 25.1 26.2 79.2 28 6.3 43.4
12:40 1020 30.12 850 25.1 25.7 78.3 28 5.8 42.5
12:45 1020 30.12 850 25.1 25.2 77.3 27 5.3 41.5
12:50 1020 30.12 850 25.1 25.1 77.1 27 5.3 41.5
12:55 1020 30.12 850 25.1 24.8 76.6 29 5.6 42
13:00 1020 30.12 850 25.1 25 77.1 27 5.1 41.3
13:05 1020 30.12 849 25.07 24.9 76.7 28 5.4 41.7
13:10 1020 30.12 849 25.07 25.1 77.1 27 5 41
13:15 1020 30.12 849 25.07 25.2 77.4 28 5.5 41.9
13:20 1020 30.12 849 25.07 25.8 78.5 25 4.7 40.4
13:25 1020 30.12 849 25.07 26.4 79.5 26 5.7 42.2
13:30 1020 30.12 849 25.07 26.3 79.3 26 5.4 41.7
13:35 1020 30.12 849 25.07 26.2 79.2 24 4.5 40
13:40 1020 30.12 849 25.07 26.4 79.5 26 5.4 41.7
13:45 1020 30.12 849 25.07 26 78.7 25 4.9 40.9
13:50 1020 30.12 849 25.07 26.2 79.1 26 5.2 41.4
13:55 1020 30.12 849 25.07 25.9 78.5 26 5.3 41.5
14:00 1020 30.12 849 25.07 26.1 78.9 27 6 42.8
14:05 1020 30.12 849 25.07 26 78.7 27 5.7 42.3
14:10 1020 30.12 849 25.07 25.7 78.3 26 5.1 41.2
14:15 1020 30.12 849 25.07 26 78.8 25 4.7 40.5
14:20 1020 30.12 849 25.07 26.1 79 28 6.3 43.4
14:25 1020 30.12 849 25.07 26.6 79.9 26 5.6 42
14:30 1020 30.12 849 25.07 27.1 80.8 26 6.2 43.1
14:35 1020 30.12 849 25.07 26.7 80.1 26 6 42.8
14:40 1020 30.12 849 25.07 27.1 80.8 26 6.4 43.6
14:45 1020 30.12 849 25.07 26.7 80.1 25 5.5 41.8
14:50 1020 30.12 849 25.07 26.8 80.2 25 5.4 41.7
14:55 1020 30.12 849 25.07 26.3 79.3 27 5.8 42.5
15:00 1020 30.12 849 25.07 26.1 78.9 26 5.4 41.8
15:05 1020 30.12 849 25.07 26.5 79.7 26 5.8 42.5
15:10 1020 30.12 849 25.07 26.1 79 25 4.8 40.7
15:15 1020 30.12 849 25.07 26.9 80.3 24 5 41.1
15:20 1020 30.12 849 25.07 27.3 81.2 24 5.2 41.4
15:25 1020 30.12 849 25.07 27.2 81 23 4.3 39.7
15:30 1020 30.12 849 25.07 27.5 81.6 23 4.7 40.5
15:35 1020 30.12 849 25.07 27.4 81.4 24 5.3 41.6
15:40 1020 30.12 849 25.07 26.4 79.4 26 5.6 42.1
15:45 1020 30.12 849 25.07 26.3 79.3 25 5.2 41.3
15:50 1019 30.09 849 25.07 26.5 79.7 24 4.7 40.4
15:55 1019 30.09 849 25.07 27.4 81.4 23 4.8 40.6
16:00 1019 30.09 849 25.07 26.4 79.6 23 4.2 39.5
16:05 1019 30.09 849 25.07 27.3 81.1 22 4 39.3
16:10 1019 30.09 848 25.04 28.1 82.7 21 4.1 39.4
16:15 1019 30.09 848 25.04 28.3 83 22 4.6 40.3
16:20 1019 30.09 848 25.04 28.4 83.2 21 4.4 40
16:25 1019 30.09 848 25.04 28 82.4 22 4.6 40.4
16:30 1019 30.09 848 25.04 27.3 81.1 22 4 39.2
16:35 1019 30.09 848 25.04 27.9 82.1 21 4 39.2
16:40 1019 30.09 848 25.04 28.2 82.7 21 4.4 39.9
16:45 1019 30.09 848 25.04 28.7 83.7 20 4.2 39.6
16:50 1019 30.09 848 25.04 29.2 84.6 20 4 39.1
16:55 1019 30.09 848 25.04 29.3 84.7 20 4.5 40.2
17:00 1019 30.09 848 25.04 29.3 84.8 20 4.4 39.9
17:05 1019 30.09 848 25.04 29.9 85.8 20 4.8 40.6
17:10 1019 30.09 848 25.04 29.4 84.9 22 5.8 42.4
17:15 1019 30.09 848 25.04 27.7 81.8 22 4.2 39.5
17:20 1019 30.09 848 25.04 27.6 81.7 22 4.5 40.1
17:25 1019 30.09 848 25.04 27.9 82.3 22 4.6 40.2
17:30 1019 30.09 848 25.04 27.4 81.3 21 3.7 38.6
17:35 1019 30.09 848 25.04 28.1 82.5 21 4.2 39.5
17:40 1019 30.09 848 25.04 28.6 83.4 21 4.7 40.5
17:45 1019 30.09 848 25.04 27.8 82.1 22 4.5 40.1
17:50 1019 30.09 848 25.04 27.8 82 22 4.6 40.3
17:55 1019 30.09 848 25.04 27.6 81.7 22 4.2 39.6
18:00 1019 30.09 848 25.04 27.7 81.8 22 4 39.3
18:05 1018 30.06 848 25.04 28 82.4 21 4.2 39.6
18:10 1018 30.06 848 25.04 27.6 81.6 24 5.4 41.7
18:15 1018 30.06 847 25.01 27.1 80.8 23 4.4 40
18:20 1018 30.06 847 25.01 27.3 81.2 22 4.2 39.6
18:25 1018 30.06 847 25.01 27.3 81.2 22 4.2 39.5
18:30 1018 30.06 847 25.01 27.3 81.1 21 3.6 38.5
18:35 1018 30.06 847 25.01 27.6 81.7 20 3.2 37.8
18:40 1018 30.06 848 25.04 27.9 82.2 21 3.8 38.9
18:45 1018 30.06 848 25.04 27.9 82.2 21 3.7 38.7
18:50 1018 30.06 848 25.04 27.6 81.7 20 3.1 37.7
18:55 1018 30.06 848 25.04 27.3 81.2 22 4.1 39.5
19:00 1018 30.06 847 25.01 27.3 81.1 22 4.3 39.7
19:05 1018 30.06 847 25.01 27.1 80.7 22 4 39.1
19:10 1018 30.06 847 25.01 26.9 80.4 24 5.1 41.1
19:15 1018 30.06 847 25.01 26.5 79.8 23 4.2 39.5
19:20 1018 30.06 847 25.01 26.4 79.5 25 5.1 41.1
19:25 1018 30.06 847 25.01 26.5 79.7 26 5.5 42
19:30 1018 30.06 847 25.01 26.4 79.6 26 5.7 42.3
19:35 1018 30.06 847 25.01 26.2 79.2 27 6 42.8
19:40 1018 30.06 847 25.01 26.1 79 27 5.9 42.7
19:45 1018 30.06 847 25.01 26.1 78.9 27 5.6 42.1
19:50 1018 30.06 847 25.01 26.1 78.9 27 6.1 42.9
19:55 1018 30.06 847 25.01 25.8 78.4 30 7.3 45.1
20:00 1018 30.06 847 25.01 25.4 77.7 29 6.4 43.5
20:05 1018 30.06 847 25.01 25.2 77.3 30 6.5 43.6
20:10 1018 30.06 847 25.01 25 77.1 30 6.7 44
20:15 1018 30.06 847 25.01 24.8 76.7 33 7.6 45.7
20:20 1018 30.06 847 25.01 24.4 75.9 34 7.8 46
20:25 1018 30.06 847 25.01 24.1 75.5 35 7.9 46.2
20:30 1018 30.06 847 25.01 23.9 74.9 34 7.2 45
20:35 1018 30.06 847 25.01 23.7 74.6 33 6.6 43.9
20:40 1018 30.06 847 25.01 23.6 74.4 33 6.6 43.9
20:45 1018 30.06 848 25.04 23.3 73.9 35 7 44.6
20:50 1018 30.06 848 25.04 23 73.4 34 6.3 43.3
20:55 1019 30.09 848 25.04 22.9 73.2 37 7.8 46
21:00 1019 30.09 848 25.04 22.8 73 40 8.6 47.6
21:05 1019 30.09 848 25.04 22.5 72.5 42 9.2 48.6
21:10 1019 30.09 848 25.04 22.3 72.2 43 9.4 48.9
21:15 1019 30.09 848 25.04 22.1 71.8 44 9.6 49.3
21:20 1019 30.09 848 25.04 22 71.5 45 9.5 49.1
21:25 1019 30.09 848 25.04 22 71.6 43 9.1 48.4
21:30 1019 30.09 848 25.04 22.1 71.7 44 9.4 48.9
21:35 1019 30.09 848 25.04 22 71.5 45 9.5 49.1
21:40 1019 30.09 848 25.04 21.8 71.3 45 9.4 48.9
21:45 1019 30.09 848 25.04 21.9 71.4 44 9.4 48.9
21:50 1019 30.09 848 25.04 21.9 71.3 45 9.5 49
21:55 1019 30.09 848 25.04 21.8 71.2 45 9.4 48.9
22:00 1019 30.09 848 25.04 21.7 71.1 45 9.4 49
22:05 1019 30.09 848 25.04 21.8 71.3 44 9.4 48.9
22:10 1019 30.09 848 25.04 21.9 71.4 45 9.5 49.1
22:15 1019 30.09 848 25.04 21.8 71.2 45 9.6 49.3
22:20 1019 30.09 848 25.04 21.7 71 46 9.7 49.4
22:25 1019 30.09 849 25.07 21.6 70.8 46 9.7 49.4
22:30 1019 30.09 849 25.07 21.4 70.6 47 9.7 49.5
22:35 1019 30.09 849 25.07 21.4 70.5 47 9.8 49.7
22:40 1019 30.09 848 25.04 21.3 70.3 48 10 49.9
22:45 1019 30.09 848 25.04 21.2 70.2 48 10 50
22:50 1019 30.09 848 25.04 21.2 70.2 48 10.1 50.1
22:55 1019 30.09 848 25.04 21.1 70 49 10.3 50.5
23:00 1019 30.09 849 25.07 21 69.7 50 10.3 50.5
23:05 1019 30.09 849 25.07 20.8 69.5 51 10.4 50.7
23:10 1019 30.09 848 25.04 20.8 69.5 50 10.2 50.4
23:15 1019 30.09 848 25.04 20.9 69.6 50 10.3 50.5
23:20 1019 30.09 848 25.04 20.9 69.6 50 10.3 50.6
23:25 1019 30.09 848 25.04 20.7 69.3 51 10.4 50.8
23:30 1019 30.09 848 25.04 20.6 69.1 51 10.2 50.3
23:35 1019 30.09 849 25.07 20.7 69.2 51 10.2 50.4
23:40 1019 30.09 848 25.04 20.6 69 51 10.3 50.5
23:45 1019 30.09 848 25.04 20.6 69 51 10.1 50.2
23:50 1019 30.09 848 25.04 20.7 69.2 51 10.2 50.4
23:55 1019 30.09 848 25.04 20.6 69 51 10.3 50.5
24:00 1019 30.09 848 25.04 20.5 68.8 51 10.2 50.4